Time;durP1;ratioP1;P1;durP2;ratioP2;P2;SDS_P1;SDS_P2;PMS_P1;PMS_P2;Temp;Humidity;BMP_temperature;BMP_pressure;BME280_temperature;BME280_humidity;BME280_pressure;Samples;Min_cycle;Max_cycle;Signal;HPM_P1;HPM_P2
2022/08/01 00:00:12;;;;;;;47.38;30.50;;;16.90;99.90;;;;;;5034596;28;20025;-68
2022/08/01 00:02:38;;;;;;;45.10;31.50;;;16.90;99.90;;;;;;5034570;28;20025;-69
2022/08/01 00:05:05;;;;;;;43.83;32.10;;;16.90;99.90;;;;;;5034648;28;20374;-68
2022/08/01 00:07:32;;;;;;;44.70;32.10;;;16.90;99.90;;;;;;5034423;28;20031;-68
2022/08/01 00:09:57;;;;;;;50.22;34.22;;;16.80;99.90;;;;;;5034501;28;20477;-68
2022/08/01 00:12:23;;;;;;;51.08;34.55;;;16.80;99.90;;;;;;5034342;28;20026;-69
2022/08/01 00:14:49;;;;;;;53.33;31.40;;;16.80;99.90;;;;;;5034293;28;20120;-68
2022/08/01 00:17:14;;;;;;;51.00;33.22;;;16.80;99.90;;;;;;5032267;28;20638;-68
2022/08/01 00:19:40;;;;;;;56.60;33.92;;;16.80;99.90;;;;;;5034535;28;20084;-68
2022/08/01 00:22:06;;;;;;;54.60;33.13;;;16.80;99.90;;;;;;5017394;28;20375;-68
2022/08/01 00:24:32;;;;;;;63.33;32.42;;;16.90;99.90;;;;;;5014415;28;20478;-68
2022/08/01 00:26:57;;;;;;;56.65;32.60;;;16.80;99.90;;;;;;5026541;28;20097;-69
2022/08/01 00:29:23;;;;;;;47.10;30.40;;;16.80;99.90;;;;;;5033790;28;20544;-69
2022/08/01 00:31:49;;;;;;;49.97;29.88;;;16.80;99.90;;;;;;5029848;28;20105;-69
2022/08/01 00:34:14;;;;;;;52.60;34.42;;;16.80;99.90;;;;;;5014254;28;20441;-68
2022/08/01 00:36:40;;;;;;;51.85;34.50;;;16.80;99.90;;;;;;5015161;28;20018;-69
2022/08/01 00:39:06;;;;;;;48.20;30.50;;;16.80;99.90;;;;;;5033926;28;20059;-69
2022/08/01 00:41:31;;;;;;;52.60;30.55;;;16.80;99.90;;;;;;5034166;28;20414;-68
2022/08/01 00:43:57;;;;;;;57.72;33.42;;;16.80;99.90;;;;;;5033850;28;20489;-68
2022/08/01 00:46:22;;;;;;;53.67;32.45;;;16.80;99.90;;;;;;5032369;28;20021;-68
2022/08/01 00:48:48;;;;;;;42.10;30.17;;;16.80;99.90;;;;;;5033997;28;20087;-68
2022/08/01 00:51:14;;;;;;;49.75;32.17;;;16.80;99.90;;;;;;5034158;28;20041;-68
2022/08/01 00:53:40;;;;;;;50.13;28.58;;;16.80;99.90;;;;;;5033692;28;20030;-68
2022/08/01 00:56:07;;;;;;;61.83;31.65;;;16.80;99.90;;;;;;5032315;28;20032;-68
2022/08/01 00:58:33;;;;;;;58.88;31.58;;;16.80;99.90;;;;;;5033450;28;20037;-68
2022/08/01 01:00:59;;;;;;;59.42;31.48;;;16.80;99.90;;;;;;5033625;28;20461;-68
2022/08/01 01:03:25;;;;;;;51.03;26.52;;;16.80;99.90;;;;;;5033525;28;20036;-68
2022/08/01 01:06:11;;;;;;;49.80;27.75;;;16.90;99.90;;;;;;5033414;28;20021;-68
2022/08/01 01:08:48;;;;;;;46.33;26.65;;;16.80;99.90;;;;;;5033705;28;20083;-68
2022/08/01 01:11:21;;;;;;;48.50;26.48;;;16.90;99.90;;;;;;5033439;28;20119;-69
2022/08/01 01:13:57;;;;;;;36.92;24.20;;;16.90;99.90;;;;;;5033799;28;20465;-68
2022/08/01 01:16:24;;;;;;;38.95;22.58;;;16.90;99.90;;;;;;5034213;28;20040;-68
2022/08/01 01:18:54;;;;;;;43.90;23.95;;;16.90;99.90;;;;;;5034302;28;20025;-68
2022/08/01 01:21:20;;;;;;;37.17;20.08;;;16.90;99.90;;;;;;5054378;23;20045;-69
2022/08/01 01:24:35;;;;;;;42.42;20.55;;;16.90;99.90;;;;;;5013877;28;20476;-68
2022/08/01 01:27:00;;;;;;;;;;;16.90;99.90;;;;;;4998488;28;20140;-66
2022/08/01 01:29:39;;;;;;;29.30;19.20;;;17.00;99.90;;;;;;5033532;28;19944;-66
2022/08/01 01:32:19;;;;;;;32.80;20.90;;;16.90;99.90;;;;;;5033120;28;20481;-68
2022/08/01 01:34:47;;;;;;;38.50;18.88;;;16.90;99.90;;;;;;5033371;28;20025;-67
2022/08/01 01:37:18;;;;;;;29.23;16.55;;;16.90;99.90;;;;;;5032943;28;20030;-67
2022/08/01 01:39:46;;;;;;;30.45;15.65;;;16.80;99.90;;;;;;5033063;28;20034;-66
2022/08/01 01:42:12;;;;;;;27.52;15.43;;;16.80;99.90;;;;;;5033058;28;20025;-66
2022/08/01 01:44:38;;;;;;;25.00;14.95;;;16.80;99.90;;;;;;5030247;28;20040;-66
2022/08/01 01:47:05;;;;;;;25.35;13.38;;;16.80;99.90;;;;;;5021948;28;20033;-66
2022/08/01 01:49:32;;;;;;;21.98;12.48;;;16.70;99.90;;;;;;5033473;28;20033;-66
2022/08/01 01:52:00;;;;;;;33.38;12.73;;;16.70;99.90;;;;;;5033048;28;20048;-66
2022/08/01 01:54:30;;;;;;;37.13;13.48;;;16.70;99.90;;;;;;5032958;28;20508;-66
2022/08/01 01:56:59;;;;;;;32.08;13.68;;;16.80;99.90;;;;;;5033176;28;20032;-66
2022/08/01 01:59:28;;;;;;;36.80;12.90;;;16.70;99.90;;;;;;5032978;28;20103;-66
2022/08/01 02:01:57;;;;;;;22.80;12.57;;;16.70;99.90;;;;;;5033025;28;20021;-68
2022/08/01 02:04:24;;;;;;;33.78;13.43;;;16.70;99.90;;;;;;5033188;28;20389;-68
2022/08/01 02:06:51;;;;;;;28.73;11.38;;;16.70;99.90;;;;;;5032443;28;20389;-68
2022/08/01 02:09:19;;;;;;;19.48;9.77;;;16.70;99.90;;;;;;5013446;28;20026;-67
2022/08/01 02:11:47;;;;;;;27.38;10.40;;;16.60;99.90;;;;;;5013147;28;20022;-67
2022/08/01 02:14:15;;;;;;;25.92;10.05;;;16.70;99.90;;;;;;5013940;28;20595;-68
2022/08/01 02:16:43;;;;;;;25.10;11.30;;;16.60;99.90;;;;;;5032797;28;20385;-68
2022/08/01 02:19:10;;;;;;;24.15;10.75;;;16.60;99.90;;;;;;5030940;28;20018;-68
2022/08/01 02:21:41;;;;;;;30.95;9.95;;;16.50;99.90;;;;;;5016710;28;20053;-68
2022/08/01 02:24:27;;;;;;;21.52;9.32;;;16.50;99.90;;;;;;5016951;28;20034;-68
2022/08/01 02:26:56;;;;;;;27.30;10.82;;;16.50;99.90;;;;;;5016363;28;20041;-69
2022/08/01 02:29:27;;;;;;;22.83;9.18;;;16.50;99.90;;;;;;5016575;28;20109;-69
2022/08/01 02:31:54;;;;;;;31.60;9.45;;;16.50;99.90;;;;;;5017726;28;20481;-68
2022/08/01 02:34:22;;;;;;;25.92;9.98;;;16.50;99.90;;;;;;5036158;28;20030;-68
2022/08/01 02:36:49;;;;;;;20.85;8.70;;;16.50;99.90;;;;;;5036145;28;20075;-68
2022/08/01 02:39:18;;;;;;;26.13;9.77;;;16.50;99.90;;;;;;5036103;28;20021;-67
2022/08/01 02:41:48;;;;;;;23.52;9.82;;;16.40;99.90;;;;;;5036823;28;20094;-67
2022/08/01 02:44:21;;;;;;;25.77;9.90;;;16.50;99.90;;;;;;5036040;28;20018;-67
2022/08/01 02:46:51;;;;;;;;;;;16.40;99.90;;;;;;5036973;28;20422;-67
2022/08/01 02:49:19;;;;;;;22.60;10.43;;;16.40;99.90;;;;;;5035885;28;19913;-67
2022/08/01 02:51:47;;;;;;;22.13;10.73;;;16.40;99.90;;;;;;5035928;28;20032;-68
2022/08/01 02:54:14;;;;;;;19.23;11.82;;;16.40;99.90;;;;;;5035766;28;20025;-68
2022/08/01 02:56:41;;;;;;;25.90;11.18;;;16.40;99.90;;;;;;5035964;28;20018;-68
2022/08/01 02:59:14;;;;;;;22.30;10.00;;;16.30;99.90;;;;;;5035990;28;20033;-68
2022/08/01 03:01:42;;;;;;;18.75;10.35;;;16.40;99.90;;;;;;5035867;28;20032;-68
2022/08/01 03:04:08;;;;;;;26.08;10.55;;;16.30;99.90;;;;;;5035885;28;20433;-68
2022/08/01 03:06:35;;;;;;;19.60;10.25;;;16.30;99.90;;;;;;5035762;28;20022;-68
2022/08/01 03:09:04;;;;;;;21.80;10.18;;;16.30;99.90;;;;;;5035745;28;20036;-68
2022/08/01 03:11:30;;;;;;;21.75;10.25;;;16.30;99.90;;;;;;5035752;28;20080;-68
2022/08/01 03:14:01;;;;;;;22.92;10.85;;;16.30;99.90;;;;;;5035325;28;20022;-68
2022/08/01 03:16:27;;;;;;;27.55;9.70;;;16.30;99.90;;;;;;5035769;28;20025;-68
2022/08/01 03:18:56;;;;;;;21.80;8.15;;;16.30;99.90;;;;;;5035676;28;20033;-68
2022/08/01 03:21:23;;;;;;;32.20;8.88;;;16.20;99.90;;;;;;5035314;28;20125;-67
2022/08/01 03:23:53;;;;;;;23.08;7.35;;;16.20;99.90;;;;;;5035325;28;20029;-68
2022/08/01 03:26:19;;;;;;;30.55;8.40;;;16.20;99.90;;;;;;5035107;28;20029;-68
2022/08/01 03:28:46;;;;;;;20.27;8.57;;;16.10;99.90;;;;;;5035481;28;20129;-68
2022/08/01 03:31:13;;;;;;;30.60;9.90;;;16.20;99.90;;;;;;5034125;28;20036;-68
2022/08/01 03:33:39;;;;;;;25.05;8.77;;;16.20;99.90;;;;;;5035140;28;20033;-67
2022/08/01 03:36:09;;;;;;;24.73;8.60;;;16.10;99.90;;;;;;5034938;28;20388;-67
2022/08/01 03:38:37;;;;;;;19.90;7.90;;;16.10;99.90;;;;;;5034800;28;20033;-67
2022/08/01 03:41:12;;;;;;;16.13;7.72;;;16.10;99.90;;;;;;5034845;28;20105;-67
2022/08/01 03:43:43;;;;;;;18.60;7.80;;;16.00;99.90;;;;;;5035012;28;20478;-67
2022/08/01 03:46:14;;;;;;;18.38;7.22;;;15.90;99.90;;;;;;5017620;28;20035;-67
2022/08/01 03:48:46;;;;;;;22.80;7.25;;;15.80;99.90;;;;;;5015082;28;20022;-67
2022/08/01 03:51:13;;;;;;;28.45;8.05;;;15.80;99.90;;;;;;5015730;28;20034;-66
2022/08/01 03:53:42;;;;;;;30.80;8.90;;;15.70;99.90;;;;;;5015249;28;20026;-66
2022/08/01 03:56:09;;;;;;;29.92;8.43;;;15.70;99.90;;;;;;5014786;28;20021;-68
2022/08/01 03:58:36;;;;;;;30.08;9.10;;;15.60;99.90;;;;;;5015141;28;20026;-69
2022/08/01 04:01:03;;;;;;;27.83;8.20;;;15.50;99.90;;;;;;5014774;28;20098;-68
2022/08/01 04:03:29;;;;;;;43.88;9.23;;;15.50;99.90;;;;;;5014665;28;20496;-68
2022/08/01 04:05:55;;;;;;;25.33;7.03;;;15.20;99.90;;;;;;5014571;28;20069;-67
2022/08/01 04:08:21;;;;;;;37.45;8.90;;;15.20;99.90;;;;;;5014967;28;20068;-67
2022/08/01 04:10:46;;;;;;;41.90;9.40;;;15.10;99.90;;;;;;5015356;28;20061;-67
2022/08/01 04:13:12;;;;;;;33.85;8.05;;;15.00;99.90;;;;;;5034208;28;20030;-67
2022/08/01 04:15:38;;;;;;;29.70;7.85;;;15.00;99.90;;;;;;5034494;28;20026;-67
2022/08/01 04:18:03;;;;;;;39.13;7.28;;;14.90;99.90;;;;;;5034210;28;20100;-67
2022/08/01 04:20:29;;;;;;;26.13;6.57;;;14.80;99.90;;;;;;5034021;28;20045;-67
2022/08/01 04:22:55;;;;;;;37.17;8.32;;;14.80;99.90;;;;;;5033958;28;20033;-67
2022/08/01 04:25:29;;;;;;;31.02;8.18;;;14.80;99.90;;;;;;5034319;28;20113;-67
2022/08/01 04:27:56;;;;;;;48.72;10.40;;;14.80;99.90;;;;;;5034596;28;20021;-67
2022/08/01 04:30:30;;;;;;;43.55;9.18;;;14.60;99.90;;;;;;5034282;28;20378;-67
2022/08/01 04:32:58;;;;;;;32.67;8.70;;;14.70;99.90;;;;;;5033828;28;20022;-67
2022/08/01 04:35:26;;;;;;;45.17;9.73;;;14.60;99.90;;;;;;5034139;28;20040;-67
2022/08/01 04:37:53;;;;;;;26.67;7.22;;;14.60;99.90;;;;;;5024292;28;20564;-67
2022/08/01 04:40:21;;;;;;;30.83;7.70;;;14.50;99.90;;;;;;5014173;28;20081;-67
2022/08/01 04:42:48;;;;;;;27.95;6.75;;;14.40;99.90;;;;;;5013938;28;20018;-67
2022/08/01 04:45:14;;;;;;;33.35;7.80;;;14.40;99.90;;;;;;5024766;28;20025;-68
2022/08/01 04:47:42;;;;;;;39.90;7.88;;;14.20;99.90;;;;;;5033731;28;20021;-68
2022/08/01 04:50:09;;;;;;;40.40;8.38;;;14.20;99.90;;;;;;5033972;28;20034;-68
2022/08/01 04:52:36;;;;;;;39.35;7.93;;;14.10;99.90;;;;;;5033556;28;20057;-68
2022/08/01 04:55:02;;;;;;;49.63;9.13;;;14.10;99.90;;;;;;5033787;28;20025;-69
2022/08/01 04:57:28;;;;;;;31.52;7.22;;;14.00;99.90;;;;;;5014796;28;20106;-67
2022/08/01 04:59:56;;;;;;;57.22;8.05;;;14.00;99.90;;;;;;5012631;28;20022;-67
2022/08/01 05:02:23;;;;;;;38.40;8.07;;;14.00;99.90;;;;;;5013995;28;20363;-67
2022/08/01 05:04:49;;;;;;;48.97;7.18;;;14.00;99.90;;;;;;5013838;28;20025;-67
2022/08/01 05:07:15;;;;;;;36.20;7.00;;;14.10;99.90;;;;;;5029130;28;20033;-67
2022/08/01 05:09:42;;;;;;;43.55;7.20;;;14.00;99.90;;;;;;5033744;28;20108;-66
2022/08/01 05:12:10;;;;;;;44.33;6.35;;;14.10;99.90;;;;;;5033385;28;20025;-66
2022/08/01 05:14:36;;;;;;;45.95;7.05;;;14.10;99.90;;;;;;5033545;28;20036;-66
2022/08/01 05:17:04;;;;;;;38.45;7.63;;;14.10;99.90;;;;;;5033515;28;20026;-66
2022/08/01 05:19:31;;;;;;;35.75;6.20;;;14.20;99.90;;;;;;5033359;28;20021;-66
2022/08/01 05:21:58;;;;;;;42.13;7.47;;;14.20;99.90;;;;;;5033208;28;20033;-67
2022/08/01 05:24:24;;;;;;;47.40;6.25;;;14.30;99.90;;;;;;5033258;28;20091;-67
2022/08/01 05:26:49;;;;;;;38.85;7.45;;;14.50;99.90;;;;;;5033116;28;20031;-67
2022/08/01 05:29:15;;;;;;;35.17;8.07;;;14.60;99.90;;;;;;5033498;28;20113;-67
2022/08/01 05:31:41;;;;;;;43.22;7.97;;;14.80;99.90;;;;;;5033068;28;20022;-67
2022/08/01 05:34:06;;;;;;;39.00;6.72;;;14.80;99.90;;;;;;5033119;28;20022;-67
2022/08/01 05:36:32;;;;;;;42.67;7.88;;;14.70;99.90;;;;;;5033687;28;20022;-67
2022/08/01 05:38:58;;;;;;;32.00;6.82;;;14.70;99.90;;;;;;5033099;28;20105;-67
2022/08/01 05:41:23;;;;;;;35.67;6.45;;;14.60;99.90;;;;;;5033059;28;20397;-67
2022/08/01 05:43:49;;;;;;;42.60;6.20;;;14.70;99.90;;;;;;5033077;28;20071;-68
2022/08/01 05:46:15;;;;;;;39.92;7.38;;;14.70;99.90;;;;;;5033093;28;20022;-68
2022/08/01 05:48:40;;;;;;;31.35;5.35;;;14.70;99.90;;;;;;5033062;28;20029;-69
2022/08/01 05:51:06;;;;;;;48.42;6.57;;;14.70;99.90;;;;;;5032907;28;20052;-68
2022/08/01 05:53:34;;;;;;;38.22;6.47;;;14.60;99.90;;;;;;5034460;28;20025;-68
2022/08/01 05:56:00;;;;;;;41.35;6.18;;;14.70;99.90;;;;;;5037012;28;20037;-68
2022/08/01 05:58:25;;;;;;;48.13;5.03;;;14.70;99.90;;;;;;5036908;28;20021;-67
2022/08/01 06:00:51;;;;;;;40.45;6.32;;;14.70;99.90;;;;;;5036704;28;20022;-67
2022/08/01 06:03:16;;;;;;;34.50;6.03;;;14.80;99.90;;;;;;5036787;28;20354;-67
2022/08/01 06:05:42;;;;;;;39.05;5.22;;;14.80;99.90;;;;;;5036875;28;20052;-68
2022/08/01 06:08:07;;;;;;;53.60;7.03;;;14.80;99.90;;;;;;5037100;28;20026;-69
2022/08/01 06:10:33;;;;;;;28.98;4.03;;;14.90;99.90;;;;;;5036626;28;20413;-69
2022/08/01 06:13:02;;;;;;;33.00;4.82;;;14.90;99.90;;;;;;5036512;28;20432;-68
2022/08/01 06:15:29;;;;;;;35.85;5.35;;;15.00;99.90;;;;;;5036501;28;20032;-68
2022/08/01 06:17:54;;;;;;;29.60;5.22;;;15.10;99.90;;;;;;5036742;28;20056;-68
2022/08/01 06:20:20;;;;;;;28.83;4.63;;;15.20;99.90;;;;;;5037050;28;20049;-68
2022/08/01 06:22:46;;;;;;;30.58;4.97;;;15.30;99.90;;;;;;5036082;28;20033;-67
2022/08/01 06:25:11;;;;;;;25.40;5.03;;;15.30;99.90;;;;;;5036361;28;20112;-66
2022/08/01 06:27:37;;;;;;;37.30;4.05;;;15.30;99.90;;;;;;5036584;28;20047;-66
2022/08/01 06:30:04;;;;;;;31.83;4.93;;;15.30;99.90;;;;;;5036290;28;20021;-66
2022/08/01 06:32:30;;;;;;;32.30;4.70;;;15.40;99.90;;;;;;5036196;28;20026;-66
2022/08/01 06:34:56;;;;;;;28.63;4.50;;;15.50;99.90;;;;;;5036229;28;20037;-68
2022/08/01 06:37:22;;;;;;;26.65;3.70;;;15.60;99.90;;;;;;5036123;28;20385;-67
2022/08/01 06:39:49;;;;;;;27.35;5.15;;;15.70;99.90;;;;;;5036109;28;20086;-67
2022/08/01 06:42:15;;;;;;;22.27;4.13;;;15.80;99.90;;;;;;5036041;28;20021;-67
2022/08/01 06:44:41;;;;;;;26.95;4.10;;;15.80;99.90;;;;;;5035808;28;20036;-67
2022/08/01 06:47:06;;;;;;;23.27;3.33;;;15.80;99.90;;;;;;5036286;28;20029;-69
2022/08/01 06:49:32;;;;;;;19.73;4.30;;;15.70;99.90;;;;;;5036142;28;20025;-68
2022/08/01 06:51:57;;;;;;;25.35;3.92;;;15.70;99.90;;;;;;5035853;28;20029;-68
2022/08/01 06:54:23;;;;;;;28.02;5.18;;;15.80;99.90;;;;;;5036021;28;20104;-69
2022/08/01 06:56:48;;;;;;;23.58;3.72;;;15.90;99.90;;;;;;5036326;28;20022;-69
2022/08/01 06:59:14;;;;;;;23.90;3.72;;;16.00;99.90;;;;;;5035824;28;20384;-68
2022/08/01 07:01:40;;;;;;;34.20;5.13;;;16.30;99.90;;;;;;5035574;28;20029;-68
2022/08/01 07:04:05;;;;;;;20.13;4.15;;;16.60;99.90;;;;;;5035401;28;20025;-68
2022/08/01 07:06:31;;;;;;;27.33;3.83;;;16.80;99.90;;;;;;5035559;28;20057;-67
2022/08/01 07:08:56;;;;;;;30.40;4.32;;;17.00;99.90;;;;;;5035575;28;20033;-66
2022/08/01 07:11:24;;;;;;;19.50;3.10;;;17.20;99.90;;;;;;5035615;28;20028;-67
2022/08/01 07:13:50;;;;;;;29.27;4.45;;;17.50;99.90;;;;;;5035771;28;20100;-66
2022/08/01 07:16:16;;;;;;;23.75;3.80;;;17.30;99.90;;;;;;5035372;28;20109;-66
2022/08/01 07:18:42;;;;;;;23.20;4.75;;;16.80;99.90;;;;;;5035630;28;20033;-66
2022/08/01 07:23:58;;;;;;;28.90;3.63;;;15.90;99.90;;;;;;4974841;28;20426;-68
2022/08/01 07:26:24;;;;;;;22.60;4.35;;;15.70;99.90;;;;;;4976474;28;20045;-68
2022/08/01 07:28:49;;;;;;;20.33;3.47;;;15.80;99.90;;;;;;4975120;28;20490;-68
2022/08/01 07:31:15;;;;;;;16.70;2.58;;;16.10;99.90;;;;;;4976521;28;20026;-68
2022/08/01 07:33:40;;;;;;;16.25;2.80;;;16.30;99.90;;;;;;4976360;28;20027;-68
2022/08/01 07:36:06;;;;;;;24.60;3.70;;;16.40;99.90;;;;;;4976778;28;20090;-68
2022/08/01 07:38:32;;;;;;;22.15;3.80;;;16.60;99.90;;;;;;4976239;28;20030;-68
2022/08/01 07:40:57;;;;;;;12.95;2.38;;;16.70;99.90;;;;;;4976029;28;20030;-68
2022/08/01 07:43:23;;;;;;;21.08;3.25;;;16.90;99.90;;;;;;4976397;28;20026;-68
2022/08/01 07:45:48;;;;;;;23.50;5.05;;;16.90;99.90;;;;;;4976333;28;20033;-68
2022/08/01 07:48:14;;;;;;;21.20;4.72;;;17.10;99.90;;;;;;4976545;28;20030;-68
2022/08/01 07:50:39;;;;;;;26.67;3.88;;;17.40;99.90;;;;;;4976155;28;20042;-68
2022/08/01 07:53:05;;;;;;;24.33;3.03;;;17.60;99.90;;;;;;4976177;28;20055;-68
2022/08/01 07:55:31;;;;;;;23.92;3.05;;;17.70;99.90;;;;;;4976100;28;20027;-68
2022/08/01 07:57:56;;;;;;;21.67;3.00;;;17.80;99.90;;;;;;4975816;28;20063;-68
2022/08/01 08:00:23;;;;;;;16.52;2.75;;;17.70;99.90;;;;;;4975821;28;20023;-68
2022/08/01 08:02:48;;;;;;;17.38;3.10;;;17.40;99.90;;;;;;4975761;28;20022;-68
2022/08/01 08:05:14;;;;;;;12.77;2.75;;;17.20;99.90;;;;;;4975853;28;20026;-67
2022/08/01 08:07:40;;;;;;;16.58;2.33;;;17.10;99.90;;;;;;4975771;28;20078;-68
2022/08/01 08:10:06;;;;;;;14.75;2.22;;;17.10;99.90;;;;;;4975855;28;20042;-68
2022/08/01 08:12:32;;;;;;;24.58;3.40;;;17.40;99.90;;;;;;4975643;28;20035;-68
2022/08/01 08:15:00;;;;;;;16.88;3.10;;;17.60;99.90;;;;;;4975544;28;20035;-68
2022/08/01 08:17:27;;;;;;;32.47;4.15;;;17.80;99.90;;;;;;4975618;28;20019;-68
2022/08/01 08:19:53;;;;;;;13.63;3.20;;;17.80;99.90;;;;;;4975647;28;20479;-68
2022/08/01 08:22:19;;;;;;;16.80;3.00;;;17.80;99.90;;;;;;4975399;28;20498;-68
2022/08/01 08:24:45;;;;;;;17.67;2.92;;;18.00;99.90;;;;;;4975574;28;20023;-68
2022/08/01 08:27:11;;;;;;;18.50;3.65;;;18.00;99.90;;;;;;4975555;28;20475;-68
2022/08/01 08:29:36;;;;;;;21.85;3.03;;;18.20;99.90;;;;;;4975460;28;20038;-68
2022/08/01 08:32:02;;;;;;;20.58;2.92;;;18.50;99.90;;;;;;4975156;28;20109;-67
2022/08/01 08:34:28;;;;;;;24.70;3.47;;;18.90;99.90;;;;;;4975202;28;20029;-67
2022/08/01 08:36:55;;;;;;;13.40;3.03;;;19.40;99.90;;;;;;4975222;28;20028;-67
2022/08/01 08:39:22;;;;;;;17.40;2.58;;;19.50;99.90;;;;;;4975248;28;20497;-68
2022/08/01 08:41:48;;;;;;;16.63;2.80;;;19.50;99.90;;;;;;4975087;28;20031;-68
2022/08/01 08:44:14;;;;;;;11.85;2.20;;;19.40;99.90;;;;;;4975374;28;20110;-68
2022/08/01 08:46:48;;;;;;;26.88;2.70;;;19.50;99.90;;;;;;4975651;28;20050;-68
2022/08/01 08:49:26;;;;;;;21.42;3.03;;;19.10;99.90;;;;;;4974883;28;20030;-68
2022/08/01 08:51:57;;;;;;;22.85;3.60;;;18.50;99.90;;;;;;4974909;28;20031;-68
2022/08/01 08:54:24;;;;;;;14.52;2.30;;;18.20;99.90;;;;;;4973203;28;20026;-68
2022/08/01 08:56:52;;;;;;;14.13;3.13;;;18.30;99.90;;;;;;4974318;28;20027;-68
2022/08/01 08:59:18;;;;;;;14.98;2.72;;;18.50;99.90;;;;;;4974826;28;20030;-68
2022/08/01 09:01:44;;;;;;;25.15;3.72;;;18.90;99.90;;;;;;4975030;28;20436;-67
2022/08/01 09:04:11;;;;;;;15.43;2.13;;;18.90;99.90;;;;;;4958084;28;20098;-68
2022/08/01 09:06:37;;;;;;;22.60;3.42;;;18.80;99.90;;;;;;4965652;28;20069;-68
2022/08/01 09:09:04;;;;;;;12.07;2.63;;;19.00;99.90;;;;;;4974723;28;20537;-68
2022/08/01 09:11:29;;;;;;;24.10;2.83;;;19.10;99.90;;;;;;4974746;28;20387;-68
2022/08/01 09:14:13;;;;;;;23.88;3.67;;;19.40;99.90;;;;;;4974673;28;20027;-68
2022/08/01 09:16:43;;;;;;;;;;;19.70;99.90;;;;;;4963843;28;20023;-68
2022/08/01 09:19:17;;;;;;;20.55;2.83;;;19.80;99.90;;;;;;4974473;28;19906;-68
2022/08/01 09:22:00;;;;;;;19.15;3.63;;;19.90;99.90;;;;;;4974422;28;20061;-68
2022/08/01 09:24:27;;;;;;;13.18;2.15;;;19.60;99.90;;;;;;4974872;28;20026;-68
2022/08/01 09:26:54;;;;;;;20.23;2.67;;;19.50;99.90;;;;;;4974824;28;20019;-68
2022/08/01 09:29:37;;;;;;;12.63;2.60;;;19.50;99.90;;;;;;4978443;28;20450;-68
2022/08/01 09:32:05;;;;;;;14.45;2.83;;;19.80;99.90;;;;;;4978419;28;20023;-67
2022/08/01 09:34:32;;;;;;;13.48;2.40;;;20.00;99.90;;;;;;4978391;28;20038;-68
2022/08/01 09:36:59;;;;;;;11.73;2.55;;;20.00;99.90;;;;;;4978283;28;20374;-68
2022/08/01 09:39:26;;;;;;;18.95;2.85;;;20.00;99.90;;;;;;4978343;28;20029;-68
2022/08/01 09:41:53;;;;;;;11.25;2.25;;;19.70;99.90;;;;;;4978314;28;20019;-68
2022/08/01 09:44:20;;;;;;;13.07;2.75;;;19.70;99.90;;;;;;4978265;28;20041;-68
2022/08/01 09:46:55;;;;;;;16.08;3.63;;;20.00;99.90;;;;;;4978268;28;20567;-68
2022/08/01 09:49:28;;;;;;;11.98;2.72;;;19.80;99.90;;;;;;4959227;28;20451;-68
2022/08/01 09:51:54;;;;;;;11.75;2.08;;;19.70;99.90;;;;;;4958824;28;20023;-68
2022/08/01 09:54:33;;;;;;;22.33;3.00;;;19.60;99.90;;;;;;4960689;28;20029;-68
2022/08/01 09:57:17;;;;;;;12.88;2.40;;;19.90;99.90;;;;;;4958713;29;20023;-68
2022/08/01 09:59:45;;;;;;;21.90;2.40;;;20.20;99.90;;;;;;4973330;28;20027;-68
2022/08/01 10:02:26;;;;;;;14.60;3.00;;;20.30;99.90;;;;;;4977895;28;20033;-67
2022/08/01 10:04:52;;;;;;;18.27;2.30;;;20.50;99.90;;;;;;4977944;28;20031;-68
2022/08/01 10:07:19;;;;;;;9.07;2.72;;;20.70;99.90;;;;;;4977946;28;20479;-68
2022/08/01 10:09:45;;;;;;;22.92;2.22;;;20.50;99.90;;;;;;4973544;28;20037;-68
2022/08/01 10:12:14;;;;;;;8.32;2.28;;;20.30;99.90;;;;;;4977843;28;20034;-68
2022/08/01 10:14:40;;;;;;;15.10;2.20;;;20.10;99.90;;;;;;4977686;28;20034;-68
2022/08/01 10:17:11;;;;;;;17.60;3.42;;;20.10;99.90;;;;;;4977695;28;20034;-68
2022/08/01 10:19:37;;;;;;;11.93;2.05;;;20.40;99.90;;;;;;4977736;28;20485;-68
2022/08/01 10:22:05;;;;;;;13.48;2.47;;;20.70;99.90;;;;;;4977541;28;20081;-68
2022/08/01 10:24:31;;;;;;;13.38;2.42;;;21.10;99.90;;;;;;4977598;28;20049;-68
2022/08/01 10:27:03;;;;;;;15.07;2.55;;;21.40;99.90;;;;;;4977458;28;20030;-68
2022/08/01 10:29:39;;;;;;;17.52;2.45;;;21.50;99.90;;;;;;4977539;28;20019;-69
2022/08/01 10:32:06;;;;;;;13.13;2.55;;;21.30;99.90;;;;;;4977496;28;20073;-68
2022/08/01 10:34:34;;;;;;;14.23;2.78;;;21.20;99.90;;;;;;4976613;28;20054;-69
2022/08/01 10:37:00;;;;;;;12.45;2.60;;;21.50;99.90;;;;;;4964900;28;20027;-68
2022/08/01 10:39:29;;;;;;;30.63;2.72;;;21.40;99.90;;;;;;4967109;28;20486;-68
2022/08/01 10:41:55;;;;;;;13.88;2.45;;;21.00;99.90;;;;;;4970453;28;20030;-68
2022/08/01 10:44:22;;;;;;;21.27;2.70;;;20.80;99.90;;;;;;4966424;28;20031;-68
2022/08/01 10:46:52;;;;;;;7.97;2.25;;;20.70;99.90;;;;;;4974922;28;20023;-68
2022/08/01 10:49:22;;;;;;;14.40;3.15;;;20.30;99.90;;;;;;4967361;28;20030;-68
2022/08/01 10:51:47;;;;;;;20.08;3.42;;;20.30;99.90;;;;;;4971967;28;20031;-68
2022/08/01 10:54:13;;;;;;;22.23;3.92;;;20.30;99.90;;;;;;4973071;28;20027;-68
2022/08/01 10:56:50;;;;;;;20.55;4.53;;;20.20;99.90;;;;;;4970371;28;20380;-68
2022/08/01 10:59:29;;;;;;;13.75;2.65;;;20.00;99.90;;;;;;4970437;28;20015;-68
2022/08/01 11:01:57;;;;;;;19.33;3.38;;;19.90;99.90;;;;;;4968127;28;20042;-68
2022/08/01 11:04:51;;;;;;;7.80;2.40;;;20.30;99.90;;;;;;4977013;28;20105;-68
2022/08/01 11:07:19;;;;;;;18.10;3.17;;;21.10;99.90;;;;;;4976757;28;20026;-68
2022/08/01 11:09:47;;;;;;;12.82;2.97;;;21.20;99.90;;;;;;4977042;28;20491;-68
2022/08/01 11:12:18;;;;;;;25.40;3.10;;;21.10;99.90;;;;;;4976629;28;20446;-68
2022/08/01 11:15:04;;;;;;;15.38;2.67;;;20.70;99.90;;;;;;4976576;28;20058;-68
2022/08/01 11:17:34;;;;;;;18.17;3.53;;;20.60;99.90;;;;;;4963185;28;20034;-68
2022/08/01 11:20:05;;;;;;;18.98;2.90;;;20.80;99.90;;;;;;4976639;28;20526;-68
2022/08/01 11:22:31;;;;;;;12.88;2.47;;;20.80;99.90;;;;;;4976341;28;20376;-69
2022/08/01 11:24:57;;;;;;;14.23;2.20;;;20.80;99.90;;;;;;4976503;28;20089;-69
2022/08/01 11:27:32;;;;;;;15.27;2.40;;;21.10;99.90;;;;;;4976524;28;20562;-68
2022/08/01 11:30:10;;;;;;;19.65;2.40;;;21.00;99.90;;;;;;4976463;28;20057;-68
2022/08/01 11:32:50;;;;;;;12.07;2.15;;;20.80;99.90;;;;;;4976357;28;20073;-67
2022/08/01 11:35:16;;;;;;;12.38;2.35;;;21.10;99.90;;;;;;4976155;28;20022;-68
2022/08/01 11:37:42;;;;;;;10.15;1.90;;;21.20;99.90;;;;;;4976112;28;20086;-68
2022/08/01 11:40:19;;;;;;;10.00;2.40;;;21.20;99.90;;;;;;4976302;28;20027;-68
2022/08/01 11:42:46;;;;;;;17.50;3.15;;;21.00;99.90;;;;;;4976160;28;20030;-68
2022/08/01 11:45:11;;;;;;;10.98;2.47;;;20.80;99.90;;;;;;4977270;28;20034;-68
2022/08/01 11:47:48;;;;;;;8.90;2.10;;;20.90;99.90;;;;;;4977052;28;20035;-68
2022/08/01 11:50:30;;;;;;;19.33;2.70;;;21.00;99.90;;;;;;4976039;28;20030;-67
2022/08/01 11:53:04;;;;;;;17.98;3.97;;;21.30;99.90;;;;;;4975531;28;20027;-67
2022/08/01 11:55:30;;;;;;;17.58;2.70;;;21.40;99.90;;;;;;4975837;28;20538;-67
2022/08/01 11:58:07;;;;;;;11.98;2.70;;;21.10;99.90;;;;;;4975840;28;20467;-67
2022/08/01 12:00:34;;;;;;;10.35;2.33;;;21.20;99.90;;;;;;4975786;28;20030;-67
2022/08/01 12:03:03;;;;;;;12.82;1.92;;;21.40;99.90;;;;;;4975696;28;20034;-66
2022/08/01 12:05:30;;;;;;;13.05;2.35;;;21.50;99.90;;;;;;4975776;28;20023;-66
2022/08/01 12:07:57;;;;;;;14.55;1.92;;;21.20;99.90;;;;;;4975552;28;20027;-66
2022/08/01 12:10:32;;;;;;;22.08;3.35;;;20.80;99.90;;;;;;4975639;28;20550;-66
2022/08/01 12:13:02;;;;;;;14.75;2.35;;;20.90;99.90;;;;;;4975603;28;20073;-67
2022/08/01 12:15:35;;;;;;;15.68;3.22;;;20.90;99.90;;;;;;4975446;28;20031;-67
2022/08/01 12:18:04;;;;;;;;;;;21.00;99.90;;;;;;4975910;28;20081;-67
2022/08/01 12:20:35;;;;;;;14.88;2.03;;;21.00;99.90;;;;;;4975447;28;19910;-67
2022/08/01 12:23:03;;;;;;;16.40;3.42;;;21.30;99.90;;;;;;4975157;28;20027;-66
2022/08/01 12:25:29;;;;;;;22.88;2.83;;;21.30;99.90;;;;;;4975276;28;20026;-66
2022/08/01 12:27:58;;;;;;;16.58;3.00;;;21.80;99.90;;;;;;4975296;28;20054;-66
2022/08/01 12:30:24;;;;;;;10.40;2.05;;;22.00;99.90;;;;;;4975268;28;20030;-66
2022/08/01 12:32:52;;;;;;;14.77;2.38;;;22.40;99.90;;;;;;4975177;28;20456;-67
2022/08/01 12:35:22;;;;;;;13.88;2.60;;;22.40;99.90;;;;;;4975122;28;20502;-67
2022/08/01 12:37:54;;;;;;;9.48;2.08;;;22.40;99.90;;;;;;4975361;28;20034;-67
2022/08/01 12:40:22;;;;;;;13.20;2.28;;;22.10;99.90;;;;;;4975080;28;20027;-67
2022/08/01 12:42:51;;;;;;;14.80;2.38;;;22.40;99.90;;;;;;4974975;28;20431;-67